sensor_id;sensor_type;location;lat;lon;timestamp;P1;durP1;ratioP1;P2;durP2;ratioP2
12842;SDS011;35724;49.324;-123.118;2023-03-29T00:02:37;1.05;;;0.80;;
12842;SDS011;35724;49.324;-123.118;2023-03-29T00:12:45;1.83;;;1.40;;
12842;SDS011;35724;49.324;-123.118;2023-03-29T00:22:54;3.58;;;1.65;;
12842;SDS011;35724;49.324;-123.118;2023-03-29T00:45:00;1.73;;;1.20;;
12842;SDS011;35724;49.324;-123.118;2023-03-29T00:55:10;1.80;;;1.10;;
12842;SDS011;35724;49.324;-123.118;2023-03-29T01:05:26;1.45;;;1.10;;
12842;SDS011;35724;49.324;-123.118;2023-03-29T01:16:05;2.05;;;1.00;;
12842;SDS011;35724;49.324;-123.118;2023-03-29T01:26:18;2.58;;;1.10;;
12842;SDS011;35724;49.324;-123.118;2023-03-29T01:36:35;1.63;;;1.30;;
12842;SDS011;35724;49.324;-123.118;2023-03-29T01:46:46;1.83;;;1.23;;
12842;SDS011;35724;49.324;-123.118;2023-03-29T01:57:01;1.17;;;1.00;;
12842;SDS011;35724;49.324;-123.118;2023-03-29T02:18:18;2.67;;;1.23;;
12842;SDS011;35724;49.324;-123.118;2023-03-29T02:28:26;1.88;;;1.20;;
12842;SDS011;35724;49.324;-123.118;2023-03-29T02:38:37;5.07;;;1.50;;
12842;SDS011;35724;49.324;-123.118;2023-03-29T02:48:45;2.90;;;1.20;;
12842;SDS011;35724;49.324;-123.118;2023-03-29T02:59:01;8.48;;;1.13;;
12842;SDS011;35724;49.324;-123.118;2023-03-29T03:09:21;2.85;;;1.17;;
12842;SDS011;35724;49.324;-123.118;2023-03-29T03:19:30;0.88;;;0.88;;
12842;SDS011;35724;49.324;-123.118;2023-03-29T03:29:38;2.55;;;1.20;;
12842;SDS011;35724;49.324;-123.118;2023-03-29T03:40:25;2.97;;;1.40;;
12842;SDS011;35724;49.324;-123.118;2023-03-29T03:50:32;2.28;;;1.45;;
12842;SDS011;35724;49.324;-123.118;2023-03-29T04:00:41;2.15;;;1.90;;
12842;SDS011;35724;49.324;-123.118;2023-03-29T04:11:08;2.13;;;1.77;;
12842;SDS011;35724;49.324;-123.118;2023-03-29T04:21:18;1.80;;;1.70;;
12842;SDS011;35724;49.324;-123.118;2023-03-29T04:31:25;1.85;;;1.63;;
12842;SDS011;35724;49.324;-123.118;2023-03-29T04:41:54;2.45;;;1.42;;
12842;SDS011;35724;49.324;-123.118;2023-03-29T04:52:03;4.95;;;4.45;;
12842;SDS011;35724;49.324;-123.118;2023-03-29T05:02:19;15.00;;;13.55;;
12842;SDS011;35724;49.324;-123.118;2023-03-29T05:12:30;19.20;;;17.30;;
12842;SDS011;35724;49.324;-123.118;2023-03-29T05:22:48;17.05;;;15.35;;
12842;SDS011;35724;49.324;-123.118;2023-03-29T05:45:03;16.08;;;14.48;;
12842;SDS011;35724;49.324;-123.118;2023-03-29T06:16:55;9.18;;;8.38;;
12842;SDS011;35724;49.324;-123.118;2023-03-29T06:27:04;7.55;;;6.85;;
12842;SDS011;35724;49.324;-123.118;2023-03-29T06:37:12;6.03;;;5.43;;
12842;SDS011;35724;49.324;-123.118;2023-03-29T06:47:22;4.80;;;4.40;;
12842;SDS011;35724;49.324;-123.118;2023-03-29T06:57:33;4.20;;;3.90;;
12842;SDS011;35724;49.324;-123.118;2023-03-29T07:07:43;3.63;;;3.33;;
12842;SDS011;35724;49.324;-123.118;2023-03-29T07:18:13;2.85;;;2.65;;
12842;SDS011;35724;49.324;-123.118;2023-03-29T07:28:22;2.63;;;2.42;;
12842;SDS011;35724;49.324;-123.118;2023-03-29T07:38:30;2.58;;;2.38;;
12842;SDS011;35724;49.324;-123.118;2023-03-29T07:48:44;2.10;;;2.00;;
12842;SDS011;35724;49.324;-123.118;2023-03-29T07:58:51;2.03;;;1.83;;
12842;SDS011;35724;49.324;-123.118;2023-03-29T08:09:01;1.73;;;1.63;;
12842;SDS011;35724;49.324;-123.118;2023-03-29T08:19:12;1.80;;;1.70;;
12842;SDS011;35724;49.324;-123.118;2023-03-29T08:29:39;1.33;;;1.23;;
12842;SDS011;35724;49.324;-123.118;2023-03-29T08:39:46;1.33;;;1.13;;
12842;SDS011;35724;49.324;-123.118;2023-03-29T08:50:14;1.38;;;1.23;;
12842;SDS011;35724;49.324;-123.118;2023-03-29T09:00:24;1.20;;;1.10;;
12842;SDS011;35724;49.324;-123.118;2023-03-29T09:10:47;1.10;;;1.00;;
12842;SDS011;35724;49.324;-123.118;2023-03-29T09:21:18;1.08;;;1.08;;
12842;SDS011;35724;49.324;-123.118;2023-03-29T09:31:35;0.80;;;0.80;;
12842;SDS011;35724;49.324;-123.118;2023-03-29T09:41:50;0.90;;;0.90;;
12842;SDS011;35724;49.324;-123.118;2023-03-29T09:52:03;1.00;;;0.90;;
12842;SDS011;35724;49.324;-123.118;2023-03-29T10:02:28;0.80;;;0.80;;
12842;SDS011;35724;49.324;-123.118;2023-03-29T10:12:38;0.65;;;0.60;;
12842;SDS011;35724;49.324;-123.118;2023-03-29T10:22:47;0.90;;;0.90;;
12842;SDS011;35724;49.324;-123.118;2023-03-29T10:33:03;0.68;;;0.68;;
12842;SDS011;35724;49.324;-123.118;2023-03-29T10:43:22;0.63;;;0.63;;
12842;SDS011;35724;49.324;-123.118;2023-03-29T10:53:36;0.70;;;0.70;;
12842;SDS011;35724;49.324;-123.118;2023-03-29T11:03:47;0.60;;;0.60;;
12842;SDS011;35724;49.324;-123.118;2023-03-29T11:14:15;0.70;;;0.70;;
12842;SDS011;35724;49.324;-123.118;2023-03-29T11:24:41;0.57;;;0.57;;
12842;SDS011;35724;49.324;-123.118;2023-03-29T11:35:15;0.70;;;0.70;;
12842;SDS011;35724;49.324;-123.118;2023-03-29T11:45:35;0.50;;;0.50;;
12842;SDS011;35724;49.324;-123.118;2023-03-29T11:55:47;0.60;;;0.60;;
12842;SDS011;35724;49.324;-123.118;2023-03-29T12:06:02;0.60;;;0.60;;
12842;SDS011;35724;49.324;-123.118;2023-03-29T12:16:16;0.60;;;0.60;;
12842;SDS011;35724;49.324;-123.118;2023-03-29T12:26:31;0.60;;;0.60;;
12842;SDS011;35724;49.324;-123.118;2023-03-29T12:37:15;0.50;;;0.50;;
12842;SDS011;35724;49.324;-123.118;2023-03-29T12:48:13;0.60;;;0.60;;
12842;SDS011;35724;49.324;-123.118;2023-03-29T12:58:49;0.55;;;0.40;;
12842;SDS011;35724;49.324;-123.118;2023-03-29T13:09:47;0.55;;;0.55;;
12842;SDS011;35724;49.324;-123.118;2023-03-29T13:20:39;0.52;;;0.52;;
12842;SDS011;35724;49.324;-123.118;2023-03-29T13:42:53;0.60;;;0.60;;
12842;SDS011;35724;49.324;-123.118;2023-03-29T13:53:04;0.60;;;0.60;;
12842;SDS011;35724;49.324;-123.118;2023-03-29T14:15:17;0.50;;;0.50;;
12842;SDS011;35724;49.324;-123.118;2023-03-29T14:37:00;4.10;;;1.00;;
12842;SDS011;35724;49.324;-123.118;2023-03-29T14:59:51;2.35;;;1.02;;
12842;SDS011;35724;49.324;-123.118;2023-03-29T15:25:07;2.47;;;1.20;;
12842;SDS011;35724;49.324;-123.118;2023-03-29T15:35:27;4.50;;;1.40;;
12842;SDS011;35724;49.324;-123.118;2023-03-29T15:56:07;2.10;;;1.10;;
12842;SDS011;35724;49.324;-123.118;2023-03-29T16:06:29;1.77;;;1.13;;
12842;SDS011;35724;49.324;-123.118;2023-03-29T16:17:06;3.40;;;3.10;;
12842;SDS011;35724;49.324;-123.118;2023-03-29T16:27:17;3.38;;;2.78;;
12842;SDS011;35724;49.324;-123.118;2023-03-29T16:37:26;2.95;;;2.60;;
12842;SDS011;35724;49.324;-123.118;2023-03-29T16:47:36;2.65;;;1.90;;
12842;SDS011;35724;49.324;-123.118;2023-03-29T16:57:47;2.15;;;1.67;;
12842;SDS011;35724;49.324;-123.118;2023-03-29T17:07:55;2.03;;;1.67;;
12842;SDS011;35724;49.324;-123.118;2023-03-29T17:18:06;2.13;;;1.60;;
12842;SDS011;35724;49.324;-123.118;2023-03-29T17:28:20;1.67;;;1.35;;
12842;SDS011;35724;49.324;-123.118;2023-03-29T17:49:26;1.50;;;1.30;;
12842;SDS011;35724;49.324;-123.118;2023-03-29T17:59:33;2.35;;;1.52;;
12842;SDS011;35724;49.324;-123.118;2023-03-29T18:21:54;4.45;;;1.40;;
12842;SDS011;35724;49.324;-123.118;2023-03-29T18:32:04;3.75;;;1.55;;
12842;SDS011;35724;49.324;-123.118;2023-03-29T18:42:52;2.28;;;1.60;;
12842;SDS011;35724;49.324;-123.118;2023-03-29T18:53:05;2.08;;;1.50;;
12842;SDS011;35724;49.324;-123.118;2023-03-29T19:49:08;1.60;;;1.40;;
12842;SDS011;35724;49.324;-123.118;2023-03-29T19:59:42;1.83;;;1.20;;
12842;SDS011;35724;49.324;-123.118;2023-03-29T20:21:12;2.38;;;1.25;;
12842;SDS011;35724;49.324;-123.118;2023-03-29T20:31:20;2.22;;;1.40;;
12842;SDS011;35724;49.324;-123.118;2023-03-29T20:54:03;2.15;;;1.40;;
12842;SDS011;35724;49.324;-123.118;2023-03-29T21:04:14;2.75;;;1.48;;
12842;SDS011;35724;49.324;-123.118;2023-03-29T21:14:25;1.85;;;1.42;;
12842;SDS011;35724;49.324;-123.118;2023-03-29T21:24:36;2.08;;;1.27;;
12842;SDS011;35724;49.324;-123.118;2023-03-29T21:34:54;2.33;;;1.27;;
12842;SDS011;35724;49.324;-123.118;2023-03-29T21:45:02;3.60;;;1.70;;
12842;SDS011;35724;49.324;-123.118;2023-03-29T21:55:17;2.22;;;1.30;;
12842;SDS011;35724;49.324;-123.118;2023-03-29T22:05:27;4.90;;;1.60;;
12842;SDS011;35724;49.324;-123.118;2023-03-29T22:26:39;3.47;;;1.60;;
12842;SDS011;35724;49.324;-123.118;2023-03-29T22:36:51;3.42;;;1.70;;
12842;SDS011;35724;49.324;-123.118;2023-03-29T22:47:13;5.72;;;1.73;;
12842;SDS011;35724;49.324;-123.118;2023-03-29T22:57:21;2.10;;;1.30;;
12842;SDS011;35724;49.324;-123.118;2023-03-29T23:07:29;2.88;;;1.52;;
